YBYL weather

Baryulgil Airstrip
Baryulgil, New South Wales, Australia

Public forecast

Using degrees Celsius for public forecast. Weather courtesy of forecast.io.

METAR (pilot weather report)

Closest report is Casino Airport, 31.1 nm (57.6 km) NE. Retrieved 2019/04/21 06:00 UTC (11 minutes ago):

YCAS 210600Z AUTO 10010KT //// // ////// 24/16 Q1021

TAF (pilot weather forecast)

Closest forecast is Gold Coast Airport, 78.7 nm (145.8 km) NE. Retrieved 2019/04/21 06:00 UTC (11 minutes ago):

TAF YBCG 210511Z 2106/2206 12014KT 9999 -SHRA SCT025 SCT040 FM211100 15008KT 9999 -SHRA SCT020 SCT040 FM220000 12014KT 9999 -SHRA SCT025 SCT040 INTER 2118/2124 4000 SHRA BKN012